Terminal Aerodrome Forecast
Issued by NWS Cleveland, OH

Home | Current Version | Previous Version | Graphics & Text | Print | Product List | Glossary On
Versions: 1 2 3 4 5 6 7 8 9 10 11 12 13 14
000
FTUS41 KCLE 250532
TAFCAK
TAF
KCAK 250532Z 2506/2606 19006KT P6SM SCT250
     FM250900 23006KT 4SM BR SCT250
     FM251200 23008KT P6SM BKN100
     FM251600 24010KT P6SM VCSH BKN045 OVC100
     FM252000 26008KT P6SM SCT040 BKN150=

USA.gov is the U.S. government's official web portal to all federal, state and local government web resources and services.